sensor_id;sensor_type;location;lat;lon;timestamp;temperature;humidity
3275;DHT22;1649;53.672;10.064;2023-02-28T00:00:15;2.90;99.90
3275;DHT22;1649;53.672;10.064;2023-02-28T00:02:42;3.10;99.90
3275;DHT22;1649;53.672;10.064;2023-02-28T00:05:10;3.10;99.90
3275;DHT22;1649;53.672;10.064;2023-02-28T00:07:36;3.00;99.90
3275;DHT22;1649;53.672;10.064;2023-02-28T00:10:03;3.00;99.90
3275;DHT22;1649;53.672;10.064;2023-02-28T00:12:29;3.00;99.90
3275;DHT22;1649;53.672;10.064;2023-02-28T00:14:54;2.90;99.90
3275;DHT22;1649;53.672;10.064;2023-02-28T00:17:20;2.90;99.90
3275;DHT22;1649;53.672;10.064;2023-02-28T00:19:50;2.80;99.90
3275;DHT22;1649;53.672;10.064;2023-02-28T00:22:18;2.80;99.90
3275;DHT22;1649;53.672;10.064;2023-02-28T00:24:44;2.70;99.90
3275;DHT22;1649;53.672;10.064;2023-02-28T00:27:10;2.70;99.90
3275;DHT22;1649;53.672;10.064;2023-02-28T00:29:36;2.60;99.90
3275;DHT22;1649;53.672;10.064;2023-02-28T00:32:02;2.50;99.90
3275;DHT22;1649;53.672;10.064;2023-02-28T00:34:27;2.40;99.90
3275;DHT22;1649;53.672;10.064;2023-02-28T00:36:53;2.40;99.90
3275;DHT22;1649;53.672;10.064;2023-02-28T00:39:18;2.40;99.90
3275;DHT22;1649;53.672;10.064;2023-02-28T00:41:44;2.30;99.90
3275;DHT22;1649;53.672;10.064;2023-02-28T00:44:10;2.30;99.90
3275;DHT22;1649;53.672;10.064;2023-02-28T00:46:36;2.30;99.90
3275;DHT22;1649;53.672;10.064;2023-02-28T00:49:01;2.30;99.90
3275;DHT22;1649;53.672;10.064;2023-02-28T00:51:27;2.30;99.90
3275;DHT22;1649;53.672;10.064;2023-02-28T00:53:52;2.40;99.90
3275;DHT22;1649;53.672;10.064;2023-02-28T00:56:18;2.30;99.90
3275;DHT22;1649;53.672;10.064;2023-02-28T00:58:43;2.40;99.90
3275;DHT22;1649;53.672;10.064;2023-02-28T01:01:09;2.30;99.90
3275;DHT22;1649;53.672;10.064;2023-02-28T01:03:35;2.30;99.90
3275;DHT22;1649;53.672;10.064;2023-02-28T01:06:00;2.30;99.90
3275;DHT22;1649;53.672;10.064;2023-02-28T01:08:26;2.30;99.90
3275;DHT22;1649;53.672;10.064;2023-02-28T01:10:52;2.30;99.90
3275;DHT22;1649;53.672;10.064;2023-02-28T01:13:18;2.30;99.90
3275;DHT22;1649;53.672;10.064;2023-02-28T01:15:54;2.30;99.90
3275;DHT22;1649;53.672;10.064;2023-02-28T01:18:20;2.40;99.90
3275;DHT22;1649;53.672;10.064;2023-02-28T01:20:46;2.30;99.90
3275;DHT22;1649;53.672;10.064;2023-02-28T01:23:12;2.30;99.90
3275;DHT22;1649;53.672;10.064;2023-02-28T01:25:38;2.20;99.90
3275;DHT22;1649;53.672;10.064;2023-02-28T01:28:04;2.30;99.90
3275;DHT22;1649;53.672;10.064;2023-02-28T01:30:30;2.20;99.90
3275;DHT22;1649;53.672;10.064;2023-02-28T01:32:55;2.20;99.90
3275;DHT22;1649;53.672;10.064;2023-02-28T01:35:21;2.20;99.90
3275;DHT22;1649;53.672;10.064;2023-02-28T01:37:46;2.10;99.90
3275;DHT22;1649;53.672;10.064;2023-02-28T01:40:13;1.90;99.90
3275;DHT22;1649;53.672;10.064;2023-02-28T01:42:38;1.80;99.90
3275;DHT22;1649;53.672;10.064;2023-02-28T01:45:26;1.80;99.90
3275;DHT22;1649;53.672;10.064;2023-02-28T01:48:00;1.80;99.90
3275;DHT22;1649;53.672;10.064;2023-02-28T01:50:31;1.80;99.90
3275;DHT22;1649;53.672;10.064;2023-02-28T01:53:01;1.90;99.90
3275;DHT22;1649;53.672;10.064;2023-02-28T01:55:28;1.90;99.90
3275;DHT22;1649;53.672;10.064;2023-02-28T01:57:56;1.90;99.90
3275;DHT22;1649;53.672;10.064;2023-02-28T02:00:25;1.90;99.90
3275;DHT22;1649;53.672;10.064;2023-02-28T02:02:54;1.90;99.90
3275;DHT22;1649;53.672;10.064;2023-02-28T02:05:23;1.90;99.90
3275;DHT22;1649;53.672;10.064;2023-02-28T02:07:52;1.90;99.90
3275;DHT22;1649;53.672;10.064;2023-02-28T02:10:44;2.00;99.90
3275;DHT22;1649;53.672;10.064;2023-02-28T02:15:58;2.00;99.90
3275;DHT22;1649;53.672;10.064;2023-02-28T02:18:34;2.00;99.90
3275;DHT22;1649;53.672;10.064;2023-02-28T02:21:19;1.90;99.90
3275;DHT22;1649;53.672;10.064;2023-02-28T02:26:38;2.00;99.90
3275;DHT22;1649;53.672;10.064;2023-02-28T02:38:11;2.10;99.90
3275;DHT22;1649;53.672;10.064;2023-02-28T02:40:59;2.00;99.90
3275;DHT22;1649;53.672;10.064;2023-02-28T02:43:35;1.90;99.90
3275;DHT22;1649;53.672;10.064;2023-02-28T02:46:10;1.90;99.90
3275;DHT22;1649;53.672;10.064;2023-02-28T02:48:39;1.90;99.90
3275;DHT22;1649;53.672;10.064;2023-02-28T02:51:10;1.80;99.90
3275;DHT22;1649;53.672;10.064;2023-02-28T02:53:42;1.80;99.90
3275;DHT22;1649;53.672;10.064;2023-02-28T02:56:11;1.90;99.90
3275;DHT22;1649;53.672;10.064;2023-02-28T02:58:41;1.80;99.90
3275;DHT22;1649;53.672;10.064;2023-02-28T03:01:12;1.90;99.90
3275;DHT22;1649;53.672;10.064;2023-02-28T03:03:39;1.90;99.90
3275;DHT22;1649;53.672;10.064;2023-02-28T03:06:05;2.00;99.90
3275;DHT22;1649;53.672;10.064;2023-02-28T03:08:35;2.00;99.90
3275;DHT22;1649;53.672;10.064;2023-02-28T03:11:05;2.00;99.90
3275;DHT22;1649;53.672;10.064;2023-02-28T03:17:10;2.00;99.90
3275;DHT22;1649;53.672;10.064;2023-02-28T03:19:52;1.90;99.90
3275;DHT22;1649;53.672;10.064;2023-02-28T03:25:07;1.70;99.90
3275;DHT22;1649;53.672;10.064;2023-02-28T03:31:10;1.50;99.90
3275;DHT22;1649;53.672;10.064;2023-02-28T03:33:16;1.40;99.90
3275;DHT22;1649;53.672;10.064;2023-02-28T03:35:48;1.30;99.90
3275;DHT22;1649;53.672;10.064;2023-02-28T03:38:23;1.20;99.90
3275;DHT22;1649;53.672;10.064;2023-02-28T03:40:57;1.10;99.90
3275;DHT22;1649;53.672;10.064;2023-02-28T03:43:29;1.00;99.90
3275;DHT22;1649;53.672;10.064;2023-02-28T03:45:55;1.00;99.90
3275;DHT22;1649;53.672;10.064;2023-02-28T03:48:26;0.90;99.90
3275;DHT22;1649;53.672;10.064;2023-02-28T03:50:55;0.90;99.90
3275;DHT22;1649;53.672;10.064;2023-02-28T03:53:35;0.90;99.90
3275;DHT22;1649;53.672;10.064;2023-02-28T03:58:55;0.90;99.90
3275;DHT22;1649;53.672;10.064;2023-02-28T04:01:42;0.80;99.90
3275;DHT22;1649;53.672;10.064;2023-02-28T04:04:09;0.80;99.90
3275;DHT22;1649;53.672;10.064;2023-02-28T04:06:35;0.80;99.90
3275;DHT22;1649;53.672;10.064;2023-02-28T04:09:02;0.70;99.90
3275;DHT22;1649;53.672;10.064;2023-02-28T04:11:33;0.60;99.90
3275;DHT22;1649;53.672;10.064;2023-02-28T04:14:00;0.60;99.90
3275;DHT22;1649;53.672;10.064;2023-02-28T04:16:25;0.60;99.90
3275;DHT22;1649;53.672;10.064;2023-02-28T04:18:51;0.50;99.90
3275;DHT22;1649;53.672;10.064;2023-02-28T04:21:16;0.50;99.90
3275;DHT22;1649;53.672;10.064;2023-02-28T04:23:46;0.50;99.90
3275;DHT22;1649;53.672;10.064;2023-02-28T04:26:11;0.40;99.90
3275;DHT22;1649;53.672;10.064;2023-02-28T04:28:37;0.30;99.90
3275;DHT22;1649;53.672;10.064;2023-02-28T04:31:04;0.30;99.90
3275;DHT22;1649;53.672;10.064;2023-02-28T04:33:31;0.30;99.90
3275;DHT22;1649;53.672;10.064;2023-02-28T04:36:05;0.30;99.90
3275;DHT22;1649;53.672;10.064;2023-02-28T04:38:36;0.30;99.90
3275;DHT22;1649;53.672;10.064;2023-02-28T04:41:02;0.20;99.90
3275;DHT22;1649;53.672;10.064;2023-02-28T04:43:29;0.20;99.90
3275;DHT22;1649;53.672;10.064;2023-02-28T04:45:56;0.10;99.90
3275;DHT22;1649;53.672;10.064;2023-02-28T04:48:27;0.10;99.90
3275;DHT22;1649;53.672;10.064;2023-02-28T04:50:53;0.10;99.90
3275;DHT22;1649;53.672;10.064;2023-02-28T04:53:19;0.10;99.90
3275;DHT22;1649;53.672;10.064;2023-02-28T04:55:45;0.10;99.90
3275;DHT22;1649;53.672;10.064;2023-02-28T04:58:12;0.10;99.90
3275;DHT22;1649;53.672;10.064;2023-02-28T05:00:38;0.10;99.90
3275;DHT22;1649;53.672;10.064;2023-02-28T05:03:03;0.10;99.90
3275;DHT22;1649;53.672;10.064;2023-02-28T05:05:29;0.10;99.90
3275;DHT22;1649;53.672;10.064;2023-02-28T05:07:55;0.10;99.90
3275;DHT22;1649;53.672;10.064;2023-02-28T05:10:21;0.00;99.90
3275;DHT22;1649;53.672;10.064;2023-02-28T05:12:47;0.00;99.90
3275;DHT22;1649;53.672;10.064;2023-02-28T05:15:14;-0.10;99.90
3275;DHT22;1649;53.672;10.064;2023-02-28T05:17:40;-0.10;99.90
3275;DHT22;1649;53.672;10.064;2023-02-28T05:20:06;-0.10;99.90
3275;DHT22;1649;53.672;10.064;2023-02-28T05:22:32;-0.10;99.90
3275;DHT22;1649;53.672;10.064;2023-02-28T05:24:58;-0.10;99.90
3275;DHT22;1649;53.672;10.064;2023-02-28T05:27:23;-0.10;99.90
3275;DHT22;1649;53.672;10.064;2023-02-28T05:29:49;-0.10;99.90
3275;DHT22;1649;53.672;10.064;2023-02-28T05:32:15;-0.20;99.90
3275;DHT22;1649;53.672;10.064;2023-02-28T05:34:41;-0.20;99.90
3275;DHT22;1649;53.672;10.064;2023-02-28T05:37:11;-0.20;99.90
3275;DHT22;1649;53.672;10.064;2023-02-28T05:39:37;-0.20;99.90
3275;DHT22;1649;53.672;10.064;2023-02-28T05:42:03;-0.20;99.90
3275;DHT22;1649;53.672;10.064;2023-02-28T05:44:28;-0.20;99.90
3275;DHT22;1649;53.672;10.064;2023-02-28T05:46:54;-0.20;99.90
3275;DHT22;1649;53.672;10.064;2023-02-28T05:49:19;-0.20;99.90
3275;DHT22;1649;53.672;10.064;2023-02-28T05:51:45;-0.30;99.90
3275;DHT22;1649;53.672;10.064;2023-02-28T05:54:10;-0.30;99.90
3275;DHT22;1649;53.672;10.064;2023-02-28T05:56:36;-0.20;99.90
3275;DHT22;1649;53.672;10.064;2023-02-28T05:59:04;-0.50;99.90
3275;DHT22;1649;53.672;10.064;2023-02-28T06:01:35;-0.40;99.90
3275;DHT22;1649;53.672;10.064;2023-02-28T06:04:03;-0.40;99.90
3275;DHT22;1649;53.672;10.064;2023-02-28T06:06:29;-0.40;99.90
3275;DHT22;1649;53.672;10.064;2023-02-28T06:08:55;-0.40;99.90
3275;DHT22;1649;53.672;10.064;2023-02-28T06:11:21;-0.50;99.90
3275;DHT22;1649;53.672;10.064;2023-02-28T06:13:54;-0.50;99.90
3275;DHT22;1649;53.672;10.064;2023-02-28T06:16:20;-0.50;99.90
3275;DHT22;1649;53.672;10.064;2023-02-28T06:18:46;-0.50;99.90
3275;DHT22;1649;53.672;10.064;2023-02-28T06:21:12;-0.60;99.90
3275;DHT22;1649;53.672;10.064;2023-02-28T06:23:38;-0.60;99.90
3275;DHT22;1649;53.672;10.064;2023-02-28T06:26:04;-0.50;99.90
3275;DHT22;1649;53.672;10.064;2023-02-28T06:28:30;-0.50;99.90
3275;DHT22;1649;53.672;10.064;2023-02-28T06:30:55;-0.50;99.90
3275;DHT22;1649;53.672;10.064;2023-02-28T06:33:21;-0.50;99.90
3275;DHT22;1649;53.672;10.064;2023-02-28T06:35:49;-0.50;99.90
3275;DHT22;1649;53.672;10.064;2023-02-28T06:38:15;-0.60;99.90
3275;DHT22;1649;53.672;10.064;2023-02-28T06:40:40;-0.60;99.90
3275;DHT22;1649;53.672;10.064;2023-02-28T06:43:06;-0.70;99.90
3275;DHT22;1649;53.672;10.064;2023-02-28T06:45:32;-0.70;99.90
3275;DHT22;1649;53.672;10.064;2023-02-28T06:47:58;-0.70;99.90
3275;DHT22;1649;53.672;10.064;2023-02-28T06:50:23;-0.80;99.90
3275;DHT22;1649;53.672;10.064;2023-02-28T06:52:49;-0.70;99.90
3275;DHT22;1649;53.672;10.064;2023-02-28T06:55:19;-0.60;99.90
3275;DHT22;1649;53.672;10.064;2023-02-28T06:57:44;-0.50;99.90
3275;DHT22;1649;53.672;10.064;2023-02-28T07:00:11;-0.50;99.90
3275;DHT22;1649;53.672;10.064;2023-02-28T07:02:37;-0.40;99.90
3275;DHT22;1649;53.672;10.064;2023-02-28T07:05:04;-0.40;99.90
3275;DHT22;1649;53.672;10.064;2023-02-28T07:07:30;-0.40;99.90
3275;DHT22;1649;53.672;10.064;2023-02-28T07:09:55;-0.30;99.90
3275;DHT22;1649;53.672;10.064;2023-02-28T07:12:21;-0.30;99.90
3275;DHT22;1649;53.672;10.064;2023-02-28T07:14:47;-0.30;99.90
3275;DHT22;1649;53.672;10.064;2023-02-28T07:17:12;-0.20;99.90
3275;DHT22;1649;53.672;10.064;2023-02-28T07:19:39;-0.20;99.90
3275;DHT22;1649;53.672;10.064;2023-02-28T07:22:05;-0.20;99.90
3275;DHT22;1649;53.672;10.064;2023-02-28T07:24:30;-0.20;99.90
3275;DHT22;1649;53.672;10.064;2023-02-28T07:26:56;-0.20;99.90
3275;DHT22;1649;53.672;10.064;2023-02-28T07:29:22;-0.20;99.90
3275;DHT22;1649;53.672;10.064;2023-02-28T07:31:47;-0.10;99.90
3275;DHT22;1649;53.672;10.064;2023-02-28T07:34:13;0.00;99.90
3275;DHT22;1649;53.672;10.064;2023-02-28T07:36:39;0.20;99.90
3275;DHT22;1649;53.672;10.064;2023-02-28T07:39:05;0.70;99.90
3275;DHT22;1649;53.672;10.064;2023-02-28T07:41:31;1.40;99.90
3275;DHT22;1649;53.672;10.064;2023-02-28T07:43:59;2.10;99.90
3275;DHT22;1649;53.672;10.064;2023-02-28T07:46:25;2.90;99.90
3275;DHT22;1649;53.672;10.064;2023-02-28T07:48:51;3.90;99.90
3275;DHT22;1649;53.672;10.064;2023-02-28T07:51:18;4.60;99.90
3275;DHT22;1649;53.672;10.064;2023-02-28T07:53:44;4.50;99.90
3275;DHT22;1649;53.672;10.064;2023-02-28T07:56:09;4.40;99.90
3275;DHT22;1649;53.672;10.064;2023-02-28T07:58:36;4.10;99.90
3275;DHT22;1649;53.672;10.064;2023-02-28T08:01:09;4.20;99.90
3275;DHT22;1649;53.672;10.064;2023-02-28T08:03:35;4.30;99.90
3275;DHT22;1649;53.672;10.064;2023-02-28T08:06:02;4.20;99.90
3275;DHT22;1649;53.672;10.064;2023-02-28T08:08:28;3.90;99.90
3275;DHT22;1649;53.672;10.064;2023-02-28T08:10:59;3.50;99.90
3275;DHT22;1649;53.672;10.064;2023-02-28T08:13:25;3.40;99.90
3275;DHT22;1649;53.672;10.064;2023-02-28T08:15:52;3.30;99.90
3275;DHT22;1649;53.672;10.064;2023-02-28T08:18:19;3.50;99.90
3275;DHT22;1649;53.672;10.064;2023-02-28T08:20:44;3.70;99.90
3275;DHT22;1649;53.672;10.064;2023-02-28T08:23:10;3.70;99.90
3275;DHT22;1649;53.672;10.064;2023-02-28T08:25:35;3.80;99.90
3275;DHT22;1649;53.672;10.064;2023-02-28T08:28:01;3.70;99.90
3275;DHT22;1649;53.672;10.064;2023-02-28T08:30:26;3.70;99.90
3275;DHT22;1649;53.672;10.064;2023-02-28T08:32:52;3.80;99.90
3275;DHT22;1649;53.672;10.064;2023-02-28T08:35:17;3.80;99.90
3275;DHT22;1649;53.672;10.064;2023-02-28T08:37:43;3.80;99.90
3275;DHT22;1649;53.672;10.064;2023-02-28T08:40:09;4.00;99.90
3275;DHT22;1649;53.672;10.064;2023-02-28T08:42:35;4.30;99.90
3275;DHT22;1649;53.672;10.064;2023-02-28T08:45:01;5.20;99.90
3275;DHT22;1649;53.672;10.064;2023-02-28T08:47:26;6.10;99.90
3275;DHT22;1649;53.672;10.064;2023-02-28T08:49:52;7.20;99.90
3275;DHT22;1649;53.672;10.064;2023-02-28T08:52:18;8.00;99.90
3275;DHT22;1649;53.672;10.064;2023-02-28T08:54:43;8.70;96.50
3275;DHT22;1649;53.672;10.064;2023-02-28T08:57:09;9.30;94.30
3275;DHT22;1649;53.672;10.064;2023-02-28T08:59:34;10.30;90.30
3275;DHT22;1649;53.672;10.064;2023-02-28T09:02:00;10.70;89.00
3275;DHT22;1649;53.672;10.064;2023-02-28T09:04:25;11.00;83.30
3275;DHT22;1649;53.672;10.064;2023-02-28T09:06:51;11.40;83.20
3275;DHT22;1649;53.672;10.064;2023-02-28T09:09:16;11.70;81.40
3275;DHT22;1649;53.672;10.064;2023-02-28T09:11:42;12.00;80.20
3275;DHT22;1649;53.672;10.064;2023-02-28T09:14:07;12.20;82.10
3275;DHT22;1649;53.672;10.064;2023-02-28T09:16:34;12.50;79.70
3275;DHT22;1649;53.672;10.064;2023-02-28T09:19:00;12.90;78.60
3275;DHT22;1649;53.672;10.064;2023-02-28T09:21:26;12.40;73.60
3275;DHT22;1649;53.672;10.064;2023-02-28T09:23:52;12.50;75.20
3275;DHT22;1649;53.672;10.064;2023-02-28T09:26:23;12.70;77.10
3275;DHT22;1649;53.672;10.064;2023-02-28T09:28:49;12.90;73.30
3275;DHT22;1649;53.672;10.064;2023-02-28T09:31:18;13.00;74.70
3275;DHT22;1649;53.672;10.064;2023-02-28T09:33:48;13.00;74.70
3275;DHT22;1649;53.672;10.064;2023-02-28T09:36:13;13.30;70.50
3275;DHT22;1649;53.672;10.064;2023-02-28T09:38:39;13.50;72.90
3275;DHT22;1649;53.672;10.064;2023-02-28T09:41:17;13.70;71.50
3275;DHT22;1649;53.672;10.064;2023-02-28T09:43:52;14.00;71.90
3275;DHT22;1649;53.672;10.064;2023-02-28T09:46:32;13.20;66.70
3275;DHT22;1649;53.672;10.064;2023-02-28T09:49:01;13.00;67.50
3275;DHT22;1649;53.672;10.064;2023-02-28T09:54:14;13.50;72.90
3275;DHT22;1649;53.672;10.064;2023-02-28T09:56:45;13.10;68.90
3275;DHT22;1649;53.672;10.064;2023-02-28T10:02:04;12.80;72.50
3275;DHT22;1649;53.672;10.064;2023-02-28T10:04:58;12.90;72.40
3275;DHT22;1649;53.672;10.064;2023-02-28T10:10:43;13.10;72.70
3275;DHT22;1649;53.672;10.064;2023-02-28T10:15:59;12.90;72.10
3275;DHT22;1649;53.672;10.064;2023-02-28T10:18:31;12.60;69.70
3275;DHT22;1649;53.672;10.064;2023-02-28T10:21:02;12.50;69.40
3275;DHT22;1649;53.672;10.064;2023-02-28T10:23:34;12.20;70.50
3275;DHT22;1649;53.672;10.064;2023-02-28T10:26:11;12.20;73.90
3275;DHT22;1649;53.672;10.064;2023-02-28T10:28:38;12.20;71.80
3275;DHT22;1649;53.672;10.064;2023-02-28T10:31:04;12.10;71.30
3275;DHT22;1649;53.672;10.064;2023-02-28T10:33:34;11.80;67.50
3275;DHT22;1649;53.672;10.064;2023-02-28T10:36:01;12.00;70.20
3275;DHT22;1649;53.672;10.064;2023-02-28T10:38:38;11.70;66.90
3275;DHT22;1649;53.672;10.064;2023-02-28T10:41:15;11.50;71.10
3275;DHT22;1649;53.672;10.064;2023-02-28T10:43:42;11.60;75.20
3275;DHT22;1649;53.672;10.064;2023-02-28T10:48:38;12.20;71.40
3275;DHT22;1649;53.672;10.064;2023-02-28T10:51:07;11.90;68.50
3275;DHT22;1649;53.672;10.064;2023-02-28T11:01:39;11.40;66.10
3275;DHT22;1649;53.672;10.064;2023-02-28T11:06:42;10.60;67.60
3275;DHT22;1649;53.672;10.064;2023-02-28T11:09:28;10.80;70.40
3275;DHT22;1649;53.672;10.064;2023-02-28T11:11:57;10.70;70.50
3275;DHT22;1649;53.672;10.064;2023-02-28T11:14:28;10.80;72.00
3275;DHT22;1649;53.672;10.064;2023-02-28T11:16:58;11.20;73.70
3275;DHT22;1649;53.672;10.064;2023-02-28T11:19:30;11.10;69.70
3275;DHT22;1649;53.672;10.064;2023-02-28T11:22:01;11.20;74.90
3275;DHT22;1649;53.672;10.064;2023-02-28T11:24:41;11.50;71.80
3275;DHT22;1649;53.672;10.064;2023-02-28T11:29:58;11.20;69.50
3275;DHT22;1649;53.672;10.064;2023-02-28T11:32:25;11.50;70.10
3275;DHT22;1649;53.672;10.064;2023-02-28T11:35:03;11.40;66.30
3275;DHT22;1649;53.672;10.064;2023-02-28T11:37:31;11.10;67.20
3275;DHT22;1649;53.672;10.064;2023-02-28T11:39:57;10.90;66.90
3275;DHT22;1649;53.672;10.064;2023-02-28T11:47:53;11.20;69.80
3275;DHT22;1649;53.672;10.064;2023-02-28T11:52:55;11.40;67.40
3275;DHT22;1649;53.672;10.064;2023-02-28T11:55:42;11.50;69.90
3275;DHT22;1649;53.672;10.064;2023-02-28T12:17:41;11.00;67.60
3275;DHT22;1649;53.672;10.064;2023-02-28T12:20:25;10.90;67.10
3275;DHT22;1649;53.672;10.064;2023-02-28T12:26:01;11.10;66.90
3275;DHT22;1649;53.672;10.064;2023-02-28T12:28:38;11.00;65.30
3275;DHT22;1649;53.672;10.064;2023-02-28T12:31:14;11.00;67.00
3275;DHT22;1649;53.672;10.064;2023-02-28T12:33:50;11.00;64.60
3275;DHT22;1649;53.672;10.064;2023-02-28T12:36:18;10.80;62.70
3275;DHT22;1649;53.672;10.064;2023-02-28T12:39:08;10.70;64.70
3275;DHT22;1649;53.672;10.064;2023-02-28T12:41:48;10.80;64.20
3275;DHT22;1649;53.672;10.064;2023-02-28T12:44:20;10.60;62.80
3275;DHT22;1649;53.672;10.064;2023-02-28T12:46:50;10.40;63.40
3275;DHT22;1649;53.672;10.064;2023-02-28T12:49:28;10.00;61.30
3275;DHT22;1649;53.672;10.064;2023-02-28T12:51:57;9.70;62.80
3275;DHT22;1649;53.672;10.064;2023-02-28T12:54:40;9.40;64.00
3275;DHT22;1649;53.672;10.064;2023-02-28T12:57:26;9.40;64.80
3275;DHT22;1649;53.672;10.064;2023-02-28T12:59:57;9.40;66.30
3275;DHT22;1649;53.672;10.064;2023-02-28T13:05:48;9.80;68.00
3275;DHT22;1649;53.672;10.064;2023-02-28T13:08:32;10.10;65.70
3275;DHT22;1649;53.672;10.064;2023-02-28T13:11:02;10.00;65.70
3275;DHT22;1649;53.672;10.064;2023-02-28T13:13:30;9.90;63.30
3275;DHT22;1649;53.672;10.064;2023-02-28T13:16:08;9.90;61.40
3275;DHT22;1649;53.672;10.064;2023-02-28T13:18:39;9.80;64.20
3275;DHT22;1649;53.672;10.064;2023-02-28T13:21:08;10.00;67.10
3275;DHT22;1649;53.672;10.064;2023-02-28T13:23:41;10.20;66.50
3275;DHT22;1649;53.672;10.064;2023-02-28T13:26:23;10.00;61.40
3275;DHT22;1649;53.672;10.064;2023-02-28T13:34:34;9.50;62.10
3275;DHT22;1649;53.672;10.064;2023-02-28T13:37:36;9.40;62.60
3275;DHT22;1649;53.672;10.064;2023-02-28T13:40:33;9.20;63.30
3275;DHT22;1649;53.672;10.064;2023-02-28T13:43:05;9.20;63.60
3275;DHT22;1649;53.672;10.064;2023-02-28T13:45:32;9.20;64.00
3275;DHT22;1649;53.672;10.064;2023-02-28T13:48:37;9.50;66.10
3275;DHT22;1649;53.672;10.064;2023-02-28T13:50:56;9.60;64.80
3275;DHT22;1649;53.672;10.064;2023-02-28T13:56:09;9.70;65.00
3275;DHT22;1649;53.672;10.064;2023-02-28T13:58:54;9.60;63.50
3275;DHT22;1649;53.672;10.064;2023-02-28T14:05:01;9.30;62.30
3275;DHT22;1649;53.672;10.064;2023-02-28T14:07:33;9.50;66.20
3275;DHT22;1649;53.672;10.064;2023-02-28T14:10:07;9.40;64.40
3275;DHT22;1649;53.672;10.064;2023-02-28T14:18:01;9.70;66.90
3275;DHT22;1649;53.672;10.064;2023-02-28T14:20:31;9.50;65.50
3275;DHT22;1649;53.672;10.064;2023-02-28T14:23:10;9.50;65.00
3275;DHT22;1649;53.672;10.064;2023-02-28T14:28:37;9.30;66.10
3275;DHT22;1649;53.672;10.064;2023-02-28T14:31:23;9.30;66.00
3275;DHT22;1649;53.672;10.064;2023-02-28T14:34:21;9.20;66.60
3275;DHT22;1649;53.672;10.064;2023-02-28T14:36:53;9.20;67.30
3275;DHT22;1649;53.672;10.064;2023-02-28T14:39:21;9.10;67.80
3275;DHT22;1649;53.672;10.064;2023-02-28T14:41:47;9.10;65.80
3275;DHT22;1649;53.672;10.064;2023-02-28T14:44:19;9.00;64.80
3275;DHT22;1649;53.672;10.064;2023-02-28T14:46:54;9.00;67.80
3275;DHT22;1649;53.672;10.064;2023-02-28T14:49:34;9.00;69.50
3275;DHT22;1649;53.672;10.064;2023-02-28T14:52:09;9.00;68.40
3275;DHT22;1649;53.672;10.064;2023-02-28T14:54:38;9.00;67.10
3275;DHT22;1649;53.672;10.064;2023-02-28T14:57:04;8.90;66.00
3275;DHT22;1649;53.672;10.064;2023-02-28T14:59:33;8.80;66.10
3275;DHT22;1649;53.672;10.064;2023-02-28T15:02:22;8.70;64.30
3275;DHT22;1649;53.672;10.064;2023-02-28T15:04:58;8.70;65.80
3275;DHT22;1649;53.672;10.064;2023-02-28T15:07:25;8.60;68.10
3275;DHT22;1649;53.672;10.064;2023-02-28T15:10:25;8.70;69.30
3275;DHT22;1649;53.672;10.064;2023-02-28T15:13:07;8.70;67.30
3275;DHT22;1649;53.672;10.064;2023-02-28T15:15:42;8.70;66.10
3275;DHT22;1649;53.672;10.064;2023-02-28T15:21:01;8.70;66.80
3275;DHT22;1649;53.672;10.064;2023-02-28T15:23:27;8.60;65.50
3275;DHT22;1649;53.672;10.064;2023-02-28T15:25:53;8.60;65.30
3275;DHT22;1649;53.672;10.064;2023-02-28T15:28:21;8.60;65.30
3275;DHT22;1649;53.672;10.064;2023-02-28T15:30:57;8.60;64.80
3275;DHT22;1649;53.672;10.064;2023-02-28T15:33:25;8.50;61.60
3275;DHT22;1649;53.672;10.064;2023-02-28T15:35:51;8.40;62.90
3275;DHT22;1649;53.672;10.064;2023-02-28T15:38:28;8.30;61.80
3275;DHT22;1649;53.672;10.064;2023-02-28T15:40:56;8.30;62.70
3275;DHT22;1649;53.672;10.064;2023-02-28T15:43:26;8.20;63.70
3275;DHT22;1649;53.672;10.064;2023-02-28T15:45:59;8.10;63.70
3275;DHT22;1649;53.672;10.064;2023-02-28T15:48:35;8.00;66.70
3275;DHT22;1649;53.672;10.064;2023-02-28T15:51:14;8.00;66.70
3275;DHT22;1649;53.672;10.064;2023-02-28T15:53:50;8.00;66.90
3275;DHT22;1649;53.672;10.064;2023-02-28T15:56:32;7.80;66.90
3275;DHT22;1649;53.672;10.064;2023-02-28T15:59:00;7.70;69.50
3275;DHT22;1649;53.672;10.064;2023-02-28T16:01:32;7.70;70.40
3275;DHT22;1649;53.672;10.064;2023-02-28T16:04:02;7.70;68.70
3275;DHT22;1649;53.672;10.064;2023-02-28T16:06:37;7.70;67.80
3275;DHT22;1649;53.672;10.064;2023-02-28T16:09:06;7.70;68.80
3275;DHT22;1649;53.672;10.064;2023-02-28T16:11:34;7.50;69.10
3275;DHT22;1649;53.672;10.064;2023-02-28T16:14:00;7.40;71.20
3275;DHT22;1649;53.672;10.064;2023-02-28T16:16:26;7.30;72.40
3275;DHT22;1649;53.672;10.064;2023-02-28T16:18:52;7.30;72.50
3275;DHT22;1649;53.672;10.064;2023-02-28T16:21:18;7.10;73.10
3275;DHT22;1649;53.672;10.064;2023-02-28T16:23:43;7.00;72.90
3275;DHT22;1649;53.672;10.064;2023-02-28T16:26:21;6.80;74.00
3275;DHT22;1649;53.672;10.064;2023-02-28T16:28:48;6.80;76.00
3275;DHT22;1649;53.672;10.064;2023-02-28T16:31:14;6.60;78.00
3275;DHT22;1649;53.672;10.064;2023-02-28T16:33:44;6.50;78.90
3275;DHT22;1649;53.672;10.064;2023-02-28T16:36:15;6.50;82.20
3275;DHT22;1649;53.672;10.064;2023-02-28T16:38:41;6.40;83.80
3275;DHT22;1649;53.672;10.064;2023-02-28T16:41:06;6.30;86.60
3275;DHT22;1649;53.672;10.064;2023-02-28T16:43:35;6.20;91.00
3275;DHT22;1649;53.672;10.064;2023-02-28T16:46:00;6.10;92.20
3275;DHT22;1649;53.672;10.064;2023-02-28T16:48:28;5.90;92.70
3275;DHT22;1649;53.672;10.064;2023-02-28T16:50:55;5.80;94.90
3275;DHT22;1649;53.672;10.064;2023-02-28T16:53:21;5.60;95.60
3275;DHT22;1649;53.672;10.064;2023-02-28T16:55:47;5.50;99.80
3275;DHT22;1649;53.672;10.064;2023-02-28T16:58:16;5.40;99.90
3275;DHT22;1649;53.672;10.064;2023-02-28T17:00:42;5.40;99.90
3275;DHT22;1649;53.672;10.064;2023-02-28T17:03:20;5.20;99.90
3275;DHT22;1649;53.672;10.064;2023-02-28T17:05:47;5.10;99.90
3275;DHT22;1649;53.672;10.064;2023-02-28T17:08:12;4.90;99.90
3275;DHT22;1649;53.672;10.064;2023-02-28T17:10:38;4.80;99.90
3275;DHT22;1649;53.672;10.064;2023-02-28T17:13:03;4.60;99.90
3275;DHT22;1649;53.672;10.064;2023-02-28T17:15:29;4.50;99.90
3275;DHT22;1649;53.672;10.064;2023-02-28T17:17:56;4.40;99.90
3275;DHT22;1649;53.672;10.064;2023-02-28T17:20:22;4.40;99.90
3275;DHT22;1649;53.672;10.064;2023-02-28T17:22:49;4.30;99.90
3275;DHT22;1649;53.672;10.064;2023-02-28T17:25:14;4.20;99.90
3275;DHT22;1649;53.672;10.064;2023-02-28T17:27:40;4.10;99.90
3275;DHT22;1649;53.672;10.064;2023-02-28T17:30:26;4.00;99.90
3275;DHT22;1649;53.672;10.064;2023-02-28T17:32:56;3.90;99.90
3275;DHT22;1649;53.672;10.064;2023-02-28T17:35:22;3.80;99.90
3275;DHT22;1649;53.672;10.064;2023-02-28T17:37:48;3.80;99.90
3275;DHT22;1649;53.672;10.064;2023-02-28T17:40:16;3.80;99.90
3275;DHT22;1649;53.672;10.064;2023-02-28T17:42:43;3.60;99.90
3275;DHT22;1649;53.672;10.064;2023-02-28T17:45:09;3.60;99.90
3275;DHT22;1649;53.672;10.064;2023-02-28T17:47:35;3.60;99.90
3275;DHT22;1649;53.672;10.064;2023-02-28T17:50:00;3.30;99.90
3275;DHT22;1649;53.672;10.064;2023-02-28T17:52:26;3.30;99.90
3275;DHT22;1649;53.672;10.064;2023-02-28T17:54:51;3.40;99.90
3275;DHT22;1649;53.672;10.064;2023-02-28T17:57:17;3.40;99.90
3275;DHT22;1649;53.672;10.064;2023-02-28T17:59:43;3.40;99.90
3275;DHT22;1649;53.672;10.064;2023-02-28T18:02:11;3.40;99.90